Time;durP1;ratioP1;P1;durP2;ratioP2;P2;SDS_P1;SDS_P2;PMS_P1;PMS_P2;Temp;Humidity;BMP_temperature;BMP_pressure;BME280_temperature;BME280_humidity;BME280_pressure;Samples;Min_cycle;Max_cycle;Signal;HPM_P1;HPM_P2
2021/11/02 00:00:09;;;;;;;;;;;;;;;;;;5031725;28;19959;-82
2021/11/02 00:02:34;;;;;;;;;;;;;;;;;;5031577;28;19920;-83
2021/11/02 00:05:00;;;;;;;;;;;;;;;;;;5017629;28;19929;-82
2021/11/02 00:07:26;;;;;;;;;;;;;;;;;;5050802;28;19921;-83
2021/11/02 00:09:52;;;;;;;;;;;;;;;;;;5034583;28;19917;-83
2021/11/02 00:12:18;;;;;;;;;;;;;;;;;;5017780;28;19923;-82
2021/11/02 00:14:43;;;;;;;;;;;;;;;;;;5035081;28;19913;-83
2021/11/02 00:17:21;;;;;;;;;;;;;;;;;;5035079;28;19913;-82
2021/11/02 00:19:48;;;;;;;;;;;;;;;;;;5035605;28;20383;-83
2021/11/02 00:22:17;;;;;;;;;;;;;;;;;;5034271;28;19920;-83
2021/11/02 00:27:18;;;;;;;;;;;;;;;;;;5050822;28;20385;-83
2021/11/02 00:29:44;;;;;;;;;;;;;;;;;;5034399;28;19913;-83
2021/11/02 00:32:10;;;;;;;;;;;;;;;;;;5034332;28;19929;-83
2021/11/02 00:34:35;;;;;;;;;;;;;;;;;;5034229;28;20401;-83
2021/11/02 00:37:00;;;;;;;;;;;;;;;;;;5034096;28;20366;-82
2021/11/02 00:39:26;;;;;;;;;;;;;;;;;;5034215;28;19921;-83
2021/11/02 00:41:51;;;;;;;;;;;;;;;;;;5050756;28;19917;-82
2021/11/02 00:44:17;;;;;;;;;;;;;;;;;;5017368;28;20007;-83
2021/11/02 00:46:43;;;;;;;;;;;;;;;;;;5034037;28;20011;-82
2021/11/02 00:49:15;;;;;;;;;;;;;;;;;;5050620;28;20032;-82
2021/11/02 00:51:41;;;;;;;;;;;;;;;;;;5014780;28;19917;-83
2021/11/02 00:54:06;;;;;;;;;;;;;;;;;;5018012;28;19917;-82
2021/11/02 00:56:31;;;;;;;;;;;;;;;;;;5002189;28;19917;-84
2021/11/02 00:58:58;;;;;;;;;;;;;;;;;;5034766;28;19920;-82
2021/11/02 01:01:23;;;;;;;;;;;;;;;;;;5012627;28;19956;-83
2021/11/02 01:03:48;;;;;;;;;;;;;;;;;;5021335;28;19952;-82
2021/11/02 01:06:14;;;;;;;;;;;;;;;;;;5037879;28;20383;-83
2021/11/02 01:08:39;;;;;;;;;;;;;;;;;;5054367;28;19951;-82
2021/11/02 01:11:04;;;;;;;;;;;;;;;;;;5054025;28;19917;-83
2021/11/02 01:13:30;;;;;;;;;;;;;;;;;;5037532;28;19920;-83
2021/11/02 01:15:55;;;;;;;;;;;;;;;;;;5054479;28;19951;-83
2021/11/02 01:18:20;;;;;;;;;;;;;;;;;;5037629;28;19917;-82
2021/11/02 01:20:46;;;;;;;;;;;;;;;;;;5037372;28;19925;-82
2021/11/02 01:23:12;;;;;;;;;;;;;;;;;;5037654;28;19939;-83
2021/11/02 01:25:38;;;;;;;;;;;;;;;;;;5037789;28;20378;-83
2021/11/02 01:28:03;;;;;;;;;;;;;;;;;;5037361;28;19920;-83
2021/11/02 01:30:29;;;;;;;;;;;;;;;;;;5037352;28;19916;-82
2021/11/02 01:32:54;;;;;;;;;;;;;;;;;;5037582;28;20000;-82
2021/11/02 01:35:19;;;;;;;;;;;;;;;;;;5037619;28;19924;-83
2021/11/02 01:37:46;;;;;;;;;;;;;;;;;;5037582;28;19920;-82
2021/11/02 01:40:12;;;;;;;;;;;;;;;;;;5037189;28;19978;-82
2021/11/02 01:42:38;;;;;;;;;;;;;;;;;;5037530;28;19959;-82
2021/11/02 01:45:05;;;;;;;;;;;;;;;;;;5037072;28;19919;-82
2021/11/02 01:47:32;;;;;;;;;;;;;;;;;;5037548;28;19964;-82
2021/11/02 01:49:57;;;;;;;;;;;;;;;;;;5016773;28;19928;-82
2021/11/02 01:52:22;;;;;;;;;;;;;;;;;;5034081;28;19913;-83
2021/11/02 01:54:48;;;;;;;;;;;;;;;;;;5033332;28;19913;-83
2021/11/02 01:57:13;;;;;;;;;;;;;;;;;;5037101;28;19924;-82
2021/11/02 01:59:39;;;;;;;;;;;;;;;;;;5036878;28;19919;-82
2021/11/02 02:02:09;;;;;;;;;;;;;;;;;;5037181;28;19919;-82
2021/11/02 02:04:38;;;;;;;;;;;;;;;;;;5033037;28;20387;-83
2021/11/02 02:07:10;;;;;;;;;;;;;;;;;;5017209;28;19913;-82
2021/11/02 02:09:53;;;;;;;;;;;;;;;;;;5033549;28;19919;-82
2021/11/02 02:12:26;;;;;;;;;;;;;;;;;;5033131;28;19920;-82
2021/11/02 02:14:52;;;;;;;;;;;;;;;;;;5051105;28;20375;-82
2021/11/02 02:17:18;;;;;;;;;;;;;;;;;;5053785;28;19956;-82
2021/11/02 02:19:55;;;;;;;;;;;;;;;;;;5052642;28;19920;-82
2021/11/02 02:22:25;;;;;;;;;;;;;;;;;;5020289;28;19935;-82
2021/11/02 02:25:00;;;;;;;;;;;;;;;;;;5019651;28;19912;-82
2021/11/02 02:27:45;;;;;;;;;;;;;;;;;;5036087;28;19919;-82
2021/11/02 02:30:11;;;;;;;;;;;;;;;;;;5045441;28;19917;-82
2021/11/02 02:32:38;;;;;;;;;;;;;;;;;;5036174;28;19924;-83
2021/11/02 02:35:08;;;;;;;;;;;;;;;;;;5019766;28;19924;-82
2021/11/02 02:37:33;;;;;;;;;;;;;;;;;;5037225;28;20016;-82
2021/11/02 02:39:59;;;;;;;;;;;;;;;;;;5036215;28;20003;-82
2021/11/02 02:42:26;;;;;;;;;;;;;;;;;;5019437;28;20406;-83
2021/11/02 02:44:51;;;;;;;;;;;;;;;;;;5036256;28;19917;-82
2021/11/02 02:47:17;;;;;;;;;;;;;;;;;;5032501;28;20271;-82
2021/11/02 02:49:42;;;;;;;;;;;;;;;;;;5040276;28;20332;-83
2021/11/02 02:52:07;;;;;;;;;;;;;;;;;;5015778;28;19924;-82
2021/11/02 02:54:32;;;;;;;;;;;;;;;;;;5050434;28;20397;-82
2021/11/02 02:56:59;;;;;;;;;;;;;;;;;;5018970;28;19913;-83
2021/11/02 02:59:24;;;;;;;;;;;;;;;;;;5035850;28;19975;-82
2021/11/02 03:01:51;;;;;;;;;;;;;;;;;;5035498;28;19913;-83
2021/11/02 03:04:20;;;;;;;;;;;;;;;;;;5019428;28;20011;-82
2021/11/02 03:06:47;;;;;;;;;;;;;;;;;;5016309;28;19927;-82
2021/11/02 03:09:13;;;;;;;;;;;;;;;;;;5016879;28;19952;-82
2021/11/02 03:11:38;;;;;;;;;;;;;;;;;;5015626;28;19967;-81
2021/11/02 03:14:06;;;;;;;;;;;;;;;;;;5035278;28;19917;-82
2021/11/02 03:49:39;;;;;;;;;;;;;;;;;;5051467;28;20405;-82
2021/11/02 03:54:47;;;;;;;;;;;;;;;;;;5051118;28;19917;-82
2021/11/02 04:46:18;;;;;;;;;;;;;;;;;;5050469;28;20007;-83
2021/11/02 05:48:04;;;;;;;;;;;;;;;;;;5039840;28;19999;-83
2021/11/02 05:59:28;;;;;;;;;;;;;;;;;;5032505;28;20435;-83
2021/11/02 06:02:04;;;;;;;;;;;;;;;;;;5003348;28;19952;-82
2021/11/02 06:07:09;;;;;;;;;;;;;;;;;;5050113;28;19913;-83
2021/11/02 06:09:44;;;;;;;;;;;;;;;;;;5050513;28;20008;-82
2021/11/02 06:27:44;;;;;;;;;;;;;;;;;;5053235;28;20278;-83
2021/11/02 06:28:52;;;;;;;;;;;;;;;;;;5052708;28;19920;-83
2021/11/02 06:31:21;;;;;;;;;;;;;;;;;;5036549;28;19974;-83
2021/11/02 06:47:22;;;;;;;;;;;;;;;;;;5052660;28;19966;-82
2021/11/02 06:53:00;;;;;;;;;;;;;;;;;;5032833;28;20264;-82
2021/11/02 08:47:47;;;;;;;;;;;;;;;;;;5051178;28;19917;-83
2021/11/02 08:50:12;;;;;;;;;;;;;;;;;;5013607;28;19925;-82
2021/11/02 08:52:38;;;;;;;;;;;;;;;;;;5047300;28;20264;-82
2021/11/02 08:55:04;;;;;;;;;;;;;;;;;;5030597;28;19913;-82
2021/11/02 08:57:29;;;;;;;;;;;;;;;;;;5033743;28;19960;-82
2021/11/02 08:59:55;;;;;;;;;;;;;;;;;;5034005;28;19960;-83
2021/11/02 09:02:33;;;;;;;;;;;;;;;;;;5034243;28;20047;-83
2021/11/02 09:05:09;;;;;;;;;;;;;;;;;;5024328;28;19924;-83
2021/11/02 09:07:34;;;;;;;;;;;;;;;;;;5030935;28;19913;-82
2021/11/02 09:09:59;;;;;;;;;;;;;;;;;;5025766;28;19924;-83
2021/11/02 09:12:31;;;;;;;;;;;;;;;;;;5050288;28;19916;-83
2021/11/02 09:14:58;;;;;;;;;;;;;;;;;;5025930;28;19927;-83
2021/11/02 09:17:23;;;;;;;;;;;;;;;;;;5023783;28;19916;-83
2021/11/02 09:19:49;;;;;;;;;;;;;;;;;;5033656;28;19932;-83
2021/11/02 09:22:16;;;;;;;;;;;;;;;;;;5051055;28;20003;-82
2021/11/02 09:24:44;;;;;;;;;;;;;;;;;;5050573;28;19921;-82
2021/11/02 09:27:13;;;;;;;;;;;;;;;;;;5044370;28;19923;-82
2021/11/02 09:29:38;;;;;;;;;;;;;;;;;;5071868;28;20003;-82
2021/11/02 09:32:04;;;;;;;;;;;;;;;;;;5043220;28;20426;-82
2021/11/02 09:34:30;;;;;;;;;;;;;;;;;;5054338;28;20386;-82
2021/11/02 09:37:05;;;;;;;;;;;;;;;;;;5037628;28;20003;-82
2021/11/02 09:39:32;;;;;;;;;;;;;;;;;;5039593;28;19999;-82
2021/11/02 09:42:17;;;;;;;;;;;;;;;;;;5037737;28;20302;-82
2021/11/02 09:45:09;;;;;;;;;;;;;;;;;;5053501;28;19917;-82
2021/11/02 09:47:53;;;;;;;;;;;;;;;;;;5009087;28;19919;-82
2021/11/02 09:50:48;;;;;;;;;;;;;;;;;;5047053;28;19933;-82
2021/11/02 09:53:31;;;;;;;;;;;;;;;;;;5034841;28;20371;-80
2021/11/02 09:56:12;;;;;;;;;;;;;;;;;;5053695;28;20381;-83
2021/11/02 09:58:56;;;;;;;;;;;;;;;;;;5051898;28;19947;-82
2021/11/02 10:01:31;;;;;;;;;;;;;;;;;;5036724;28;19951;-83
2021/11/02 10:04:19;;;;;;;;;;;;;;;;;;5054778;28;19921;-84
2021/11/02 10:06:54;;;;;;;;;;;;;;;;;;5036829;28;19967;-81
2021/11/02 10:09:38;;;;;;;;;;;;;;;;;;5051701;28;19917;-80
2021/11/02 10:12:20;;;;;;;;;;;;;;;;;;5036946;28;20016;-82
2021/11/02 10:14:46;;;;;;;;;;;;;;;;;;5033019;28;19975;-80
2021/11/02 10:17:31;;;;;;;;;;;;;;;;;;5051379;28;19931;-80
2021/11/02 10:19:57;;;;;;;;;;;;;;;;;;5049903;28;19925;-83
2021/11/02 10:22:41;;;;;;;;;;;;;;;;;;5052647;28;19944;-81
2021/11/02 10:25:13;;;;;;;;;;;;;;;;;;5051098;28;20389;-85
2021/11/02 10:27:57;;;;;;;;;;;;;;;;;;5033514;28;19921;-83
2021/11/02 10:30:29;;;;;;;;;;;;;;;;;;5048444;28;20826;-84
2021/11/02 10:32:56;;;;;;;;;;;;;;;;;;5030848;28;19929;-83
2021/11/02 10:35:40;;;;;;;;;;;;;;;;;;5034420;28;19963;-84
2021/11/02 10:38:10;;;;;;;;;;;;;;;;;;5037049;28;19931;-85
2021/11/02 10:40:55;;;;;;;;;;;;;;;;;;5016943;28;19947;-86
2021/11/02 10:43:28;;;;;;;;;;;;;;;;;;5031002;28;19929;-85
2021/11/02 10:45:55;;;;;;;;;;;;;;;;;;5034260;28;19917;-84
2021/11/02 10:48:24;;;;;;;;;;;;;;;;;;5020016;28;19913;-83
2021/11/02 10:50:49;;;;;;;;;;;;;;;;;;5018677;28;19933;-86
2021/11/02 10:53:21;;;;;;;;;;;;;;;;;;5016078;28;20363;-86
2021/11/02 10:55:49;;;;;;;;;;;;;;;;;;5019530;28;19920;-86
2021/11/02 10:58:35;;;;;;;;;;;;;;;;;;5032872;28;19982;-87
2021/11/02 11:01:04;;;;;;;;;;;;;;;;;;5032860;28;20282;-87
2021/11/02 11:03:32;;;;;;;;;;;;;;;;;;5016725;28;19913;-86
2021/11/02 11:05:59;;;;;;;;;;;;;;;;;;5036444;28;19921;-87
2021/11/02 11:08:27;;;;;;;;;;;;;;;;;;5020249;28;19916;-89
2021/11/02 11:10:55;;;;;;;;;;;;;;;;;;5020603;28;20394;-89
2021/11/02 11:13:25;;;;;;;;;;;;;;;;;;5020354;28;19913;-88
2021/11/02 11:15:53;;;;;;;;;;;;;;;;;;5036208;28;19917;-89
2021/11/02 11:18:19;;;;;;;;;;;;;;;;;;5020129;28;20388;-90
2021/11/02 11:20:45;;;;;;;;;;;;;;;;;;5018939;28;19920;-85
2021/11/02 11:23:10;;;;;;;;;;;;;;;;;;5018506;28;19913;-85
2021/11/02 11:25:36;;;;;;;;;;;;;;;;;;5063049;28;19979;-84
2021/11/02 11:28:01;;;;;;;;;;;;;;;;;;5037495;28;19913;-85
2021/11/02 11:30:27;;;;;;;;;;;;;;;;;;5051535;28;19932;-85
2021/11/02 11:32:53;;;;;;;;;;;;;;;;;;5039352;28;19961;-84
2021/11/02 11:35:18;;;;;;;;;;;;;;;;;;5018438;28;19913;-85
2021/11/02 11:37:45;;;;;;;;;;;;;;;;;;5015164;28;19912;-84
2021/11/02 11:40:11;;;;;;;;;;;;;;;;;;5018066;28;19935;-84
2021/11/02 11:42:36;;;;;;;;;;;;;;;;;;5018728;28;19917;-85
2021/11/02 11:45:22;;;;;;;;;;;;;;;;;;5029083;28;19925;-85
2021/11/02 11:48:02;;;;;;;;;;;;;;;;;;5034583;28;19994;-84
2021/11/02 11:50:28;;;;;;;;;;;;;;;;;;5051387;28;19925;-84
2021/11/02 11:52:54;;;;;;;;;;;;;;;;;;5051434;28;20355;-84
2021/11/02 11:55:23;;;;;;;;;;;;;;;;;;5034269;28;19917;-84
2021/11/02 11:58:20;;;;;;;;;;;;;;;;;;5034718;28;19956;-84
2021/11/02 12:01:06;;;;;;;;;;;;;;;;;;5021055;28;19917;-82
2021/11/02 12:03:32;;;;;;;;;;;;;;;;;;5019104;28;20020;-82
2021/11/02 12:06:18;;;;;;;;;;;;;;;;;;5033478;28;20459;-90
2021/11/02 12:08:45;;;;;;;;;;;;;;;;;;5032945;28;19920;-82
2021/11/02 12:11:11;;;;;;;;;;;;;;;;;;5051065;28;19995;-83
2021/11/02 12:13:38;;;;;;;;;;;;;;;;;;5033826;28;20019;-82
2021/11/02 12:16:13;;;;;;;;;;;;;;;;;;5017181;28;19921;-82
2021/11/02 12:18:41;;;;;;;;;;;;;;;;;;5034454;28;19912;-83
2021/11/02 12:21:07;;;;;;;;;;;;;;;;;;5018159;28;19981;-83
2021/11/02 12:23:33;;;;;;;;;;;;;;;;;;5034327;28;19916;-84
2021/11/02 12:25:59;;;;;;;;;;;;;;;;;;5034261;28;19956;-84
2021/11/02 12:28:29;;;;;;;;;;;;;;;;;;5017778;28;19968;-85
2021/11/02 12:30:59;;;;;;;;;;;;;;;;;;5024403;28;20386;-86
2021/11/02 12:33:25;;;;;;;;;;;;;;;;;;5031982;28;19920;-88
2021/11/02 12:35:52;;;;;;;;;;;;;;;;;;5015253;28;19913;-86
2021/11/02 12:38:27;;;;;;;;;;;;;;;;;;5031728;28;19932;-86
2021/11/02 12:40:52;;;;;;;;;;;;;;;;;;5014553;28;19921;-86
2021/11/02 12:43:22;;;;;;;;;;;;;;;;;;5033713;28;19913;-86
2021/11/02 12:45:47;;;;;;;;;;;;;;;;;;5016980;28;20042;-84
2021/11/02 12:48:12;;;;;;;;;;;;;;;;;;5021054;28;20016;-84
2021/11/02 12:50:38;;;;;;;;;;;;;;;;;;5037412;28;19921;-85
2021/11/02 12:53:06;;;;;;;;;;;;;;;;;;5037535;28;19924;-85
2021/11/02 12:55:32;;;;;;;;;;;;;;;;;;5037496;28;19972;-85
2021/11/02 12:58:18;;;;;;;;;;;;;;;;;;5015886;28;19921;-85
2021/11/02 13:00:53;;;;;;;;;;;;;;;;;;5020618;28;19914;-86
2021/11/02 13:03:20;;;;;;;;;;;;;;;;;;5037595;28;20371;-85
2021/11/02 13:06:12;;;;;;;;;;;;;;;;;;5004604;28;19913;-85
2021/11/02 13:08:40;;;;;;;;;;;;;;;;;;5036405;28;19941;-85
2021/11/02 13:11:10;;;;;;;;;;;;;;;;;;5004349;28;20391;-85
2021/11/02 13:13:56;;;;;;;;;;;;;;;;;;5004701;28;19975;-85
2021/11/02 13:16:22;;;;;;;;;;;;;;;;;;5017264;28;19919;-85
2021/11/02 13:18:48;;;;;;;;;;;;;;;;;;5020707;28;19917;-85
2021/11/02 13:21:29;;;;;;;;;;;;;;;;;;5004373;28;20012;-85
2021/11/02 13:24:06;;;;;;;;;;;;;;;;;;5037172;28;19919;-85
2021/11/02 13:26:32;;;;;;;;;;;;;;;;;;5037065;28;20644;-85
2021/11/02 13:29:16;;;;;;;;;;;;;;;;;;5037451;28;19963;-85
2021/11/02 13:31:42;;;;;;;;;;;;;;;;;;5023598;28;20379;-85
2021/11/02 13:34:09;;;;;;;;;;;;;;;;;;5040745;28;19917;-85
2021/11/02 13:36:34;;;;;;;;;;;;;;;;;;5040631;28;20374;-84
2021/11/02 13:39:03;;;;;;;;;;;;;;;;;;5056921;28;19982;-85
2021/11/02 13:41:31;;;;;;;;;;;;;;;;;;5056953;28;20329;-85
2021/11/02 13:44:07;;;;;;;;;;;;;;;;;;5023981;28;19916;-86
2021/11/02 13:46:38;;;;;;;;;;;;;;;;;;5040289;28;19920;-85
2021/11/02 13:49:04;;;;;;;;;;;;;;;;;;5023709;28;19933;-85
2021/11/02 13:51:30;;;;;;;;;;;;;;;;;;5019632;28;20357;-85
2021/11/02 13:53:55;;;;;;;;;;;;;;;;;;5036652;28;19917;-85
2021/11/02 13:56:21;;;;;;;;;;;;;;;;;;5036866;28;19967;-84
2021/11/02 13:58:47;;;;;;;;;;;;;;;;;;5033909;28;20378;-85
2021/11/02 14:01:17;;;;;;;;;;;;;;;;;;5017436;28;19955;-84
2021/11/02 14:04:02;;;;;;;;;;;;;;;;;;5017263;28;20469;-85
2021/11/02 14:06:28;;;;;;;;;;;;;;;;;;5016650;28;20391;-85
2021/11/02 14:08:53;;;;;;;;;;;;;;;;;;5016673;28;19959;-85
2021/11/02 14:11:26;;;;;;;;;;;;;;;;;;5016812;28;20007;-85
2021/11/02 14:13:51;;;;;;;;;;;;;;;;;;5033654;28;19959;-85
2021/11/02 14:16:30;;;;;;;;;;;;;;;;;;5034178;28;19921;-86
2021/11/02 14:18:56;;;;;;;;;;;;;;;;;;5016901;28;19971;-86
2021/11/02 14:21:40;;;;;;;;;;;;;;;;;;5017366;28;19952;-86
2021/11/02 14:24:05;;;;;;;;;;;;;;;;;;5049610;28;19920;-86
2021/11/02 14:26:37;;;;;;;;;;;;;;;;;;5017165;28;20298;-86
2021/11/02 14:29:02;;;;;;;;;;;;;;;;;;5034501;28;19940;-86
2021/11/02 14:31:41;;;;;;;;;;;;;;;;;;5020332;28;20304;-85
2021/11/02 14:34:32;;;;;;;;;;;;;;;;;;5036496;28;19916;-86
2021/11/02 14:37:11;;;;;;;;;;;;;;;;;;5036484;28;19946;-86
2021/11/02 14:40:09;;;;;;;;;;;;;;;;;;5036491;28;19913;-85
2021/11/02 14:42:34;;;;;;;;;;;;;;;;;;5024841;28;20382;-86
2021/11/02 14:44:59;;;;;;;;;;;;;;;;;;5053857;28;19917;-85
2021/11/02 14:47:35;;;;;;;;;;;;;;;;;;5020252;28;19920;-86
2021/11/02 14:50:01;;;;;;;;;;;;;;;;;;5016378;28;19992;-86
2021/11/02 14:52:27;;;;;;;;;;;;;;;;;;5016083;28;20377;-86
2021/11/02 14:54:52;;;;;;;;;;;;;;;;;;5016257;28;19959;-86
2021/11/02 14:57:18;;;;;;;;;;;;;;;;;;5032685;28;20286;-84
2021/11/02 14:59:47;;;;;;;;;;;;;;;;;;5049869;28;19913;-85
2021/11/02 15:02:15;;;;;;;;;;;;;;;;;;5016335;28;20016;-86
2021/11/02 15:04:41;;;;;;;;;;;;;;;;;;5016621;28;19913;-86
2021/11/02 15:07:06;;;;;;;;;;;;;;;;;;5032413;28;19917;-86
2021/11/02 15:09:36;;;;;;;;;;;;;;;;;;5032668;28;20330;-85
2021/11/02 15:12:04;;;;;;;;;;;;;;;;;;5014691;28;19917;-85
2021/11/02 15:14:33;;;;;;;;;;;;;;;;;;5016153;28;19913;-85
2021/11/02 15:17:03;;;;;;;;;;;;;;;;;;5016093;28;19912;-85
2021/11/02 15:19:29;;;;;;;;;;;;;;;;;;5015824;28;19925;-85
2021/11/02 15:21:55;;;;;;;;;;;;;;;;;;5015565;28;19920;-85
2021/11/02 15:24:24;;;;;;;;;;;;;;;;;;5015626;28;19913;-85
2021/11/02 15:26:53;;;;;;;;;;;;;;;;;;5015758;28;19913;-85
2021/11/02 15:29:20;;;;;;;;;;;;;;;;;;5015634;28;19971;-85
2021/11/02 15:31:57;;;;;;;;;;;;;;;;;;5035772;28;19913;-85
2021/11/02 15:34:23;;;;;;;;;;;;;;;;;;5019341;28;20322;-85
2021/11/02 15:36:48;;;;;;;;;;;;;;;;;;5018325;28;19913;-84
2021/11/02 15:39:13;;;;;;;;;;;;;;;;;;5018744;28;19920;-85
2021/11/02 15:41:39;;;;;;;;;;;;;;;;;;5035262;28;19919;-85
2021/11/02 15:44:05;;;;;;;;;;;;;;;;;;5018985;28;19916;-85
2021/11/02 15:46:35;;;;;;;;;;;;;;;;;;5035300;28;19996;-85
2021/11/02 15:49:03;;;;;;;;;;;;;;;;;;5018538;28;19927;-85
2021/11/02 15:51:30;;;;;;;;;;;;;;;;;;5018373;28;20401;-85
2021/11/02 15:53:56;;;;;;;;;;;;;;;;;;5018416;28;20363;-85
2021/11/02 15:56:22;;;;;;;;;;;;;;;;;;5018384;28;20054;-85
2021/11/02 15:58:54;;;;;;;;;;;;;;;;;;5018257;28;19963;-85
2021/11/02 16:01:30;;;;;;;;;;;;;;;;;;5018686;28;19913;-85
2021/11/02 16:04:05;;;;;;;;;;;;;;;;;;5051376;28;19913;-85
2021/11/02 16:06:30;;;;;;;;;;;;;;;;;;5037802;28;19924;-85
2021/11/02 16:09:00;;;;;;;;;;;;;;;;;;5015206;28;20073;-85
2021/11/02 16:11:26;;;;;;;;;;;;;;;;;;5031295;28;19952;-85
2021/11/02 16:13:51;;;;;;;;;;;;;;;;;;5014930;28;19913;-85
2021/11/02 16:16:16;;;;;;;;;;;;;;;;;;5015105;28;20367;-85
2021/11/02 16:18:41;;;;;;;;;;;;;;;;;;5031163;28;19913;-85
2021/11/02 16:21:07;;;;;;;;;;;;;;;;;;5014820;28;19929;-84
2021/11/02 16:23:43;;;;;;;;;;;;;;;;;;5030878;28;19917;-85
2021/11/02 16:26:13;;;;;;;;;;;;;;;;;;5014631;28;20398;-85
2021/11/02 16:28:38;;;;;;;;;;;;;;;;;;5031546;28;19951;-84
2021/11/02 16:31:05;;;;;;;;;;;;;;;;;;5034036;28;19960;-85
2021/11/02 16:33:34;;;;;;;;;;;;;;;;;;5017802;28;19920;-85
2021/11/02 16:36:13;;;;;;;;;;;;;;;;;;5051095;28;19913;-85
2021/11/02 16:38:38;;;;;;;;;;;;;;;;;;5051261;28;19923;-84
2021/11/02 16:41:04;;;;;;;;;;;;;;;;;;5034167;28;19987;-84
2021/11/02 16:43:40;;;;;;;;;;;;;;;;;;5018181;28;20026;-85
2021/11/02 16:46:05;;;;;;;;;;;;;;;;;;5017739;28;19950;-84
2021/11/02 16:48:35;;;;;;;;;;;;;;;;;;5017517;28;19913;-85
2021/11/02 16:51:00;;;;;;;;;;;;;;;;;;5030477;28;20012;-85
2021/11/02 16:53:25;;;;;;;;;;;;;;;;;;5047440;28;19959;-85
2021/11/02 16:55:51;;;;;;;;;;;;;;;;;;5030384;28;20252;-85
2021/11/02 16:58:20;;;;;;;;;;;;;;;;;;5047607;28;19917;-85
2021/11/02 17:00:47;;;;;;;;;;;;;;;;;;5030001;28;19917;-85
2021/11/02 17:03:14;;;;;;;;;;;;;;;;;;5030661;28;19967;-84
2021/11/02 17:05:40;;;;;;;;;;;;;;;;;;5031171;28;20004;-85
2021/11/02 17:08:06;;;;;;;;;;;;;;;;;;5014063;28;20015;-85
2021/11/02 17:10:36;;;;;;;;;;;;;;;;;;5014419;28;19913;-85
2021/11/02 17:13:06;;;;;;;;;;;;;;;;;;5014538;28;19918;-85
2021/11/02 17:15:52;;;;;;;;;;;;;;;;;;5030962;28;20402;-85
2021/11/02 17:18:18;;;;;;;;;;;;;;;;;;5029864;28;20395;-84
2021/11/02 17:20:43;;;;;;;;;;;;;;;;;;5014001;28;19948;-85
2021/11/02 17:23:09;;;;;;;;;;;;;;;;;;5030848;28;19913;-85
2021/11/02 17:25:35;;;;;;;;;;;;;;;;;;5030617;28;19913;-84
2021/11/02 17:28:01;;;;;;;;;;;;;;;;;;5014233;28;19913;-85
2021/11/02 17:30:27;;;;;;;;;;;;;;;;;;5017406;28;20088;-84
2021/11/02 17:32:53;;;;;;;;;;;;;;;;;;5017380;28;19936;-84
2021/11/02 17:35:18;;;;;;;;;;;;;;;;;;5020248;28;19913;-85
2021/11/02 17:37:47;;;;;;;;;;;;;;;;;;5054205;28;20259;-85
2021/11/02 17:40:14;;;;;;;;;;;;;;;;;;5053989;28;19917;-85
2021/11/02 17:42:41;;;;;;;;;;;;;;;;;;5054270;28;19912;-85
2021/11/02 17:45:06;;;;;;;;;;;;;;;;;;5037682;28;19913;-85
2021/11/02 17:47:32;;;;;;;;;;;;;;;;;;5037447;28;19920;-85
2021/11/02 17:49:57;;;;;;;;;;;;;;;;;;5017106;28;19925;-85
2021/11/02 17:52:23;;;;;;;;;;;;;;;;;;5017350;28;20299;-85
2021/11/02 17:54:48;;;;;;;;;;;;;;;;;;5016932;28;19924;-85
2021/11/02 17:57:14;;;;;;;;;;;;;;;;;;5034138;28;19913;-85
2021/11/02 17:59:40;;;;;;;;;;;;;;;;;;5050471;28;19959;-84
2021/11/02 18:02:05;;;;;;;;;;;;;;;;;;5034112;28;19913;-85
2021/11/02 18:04:31;;;;;;;;;;;;;;;;;;5017163;28;19913;-85
2021/11/02 18:06:57;;;;;;;;;;;;;;;;;;5033372;28;19952;-85
2021/11/02 18:09:22;;;;;;;;;;;;;;;;;;5033639;28;19913;-84
2021/11/02 18:11:48;;;;;;;;;;;;;;;;;;5017102;28;19927;-85
2021/11/02 18:14:13;;;;;;;;;;;;;;;;;;5033695;28;19913;-85
2021/11/02 18:16:38;;;;;;;;;;;;;;;;;;5033554;28;19919;-84
2021/11/02 18:19:06;;;;;;;;;;;;;;;;;;5050510;28;20351;-85
2021/11/02 18:21:31;;;;;;;;;;;;;;;;;;5033470;28;19914;-84
2021/11/02 18:23:57;;;;;;;;;;;;;;;;;;5033325;28;19920;-85
2021/11/02 18:26:23;;;;;;;;;;;;;;;;;;5016687;28;19952;-85
2021/11/02 18:28:49;;;;;;;;;;;;;;;;;;5016603;28;19917;-85
2021/11/02 18:31:15;;;;;;;;;;;;;;;;;;5036496;28;19920;-85
2021/11/02 18:33:40;;;;;;;;;;;;;;;;;;5020109;28;19952;-84
2021/11/02 18:36:06;;;;;;;;;;;;;;;;;;5019890;28;20002;-84
2021/11/02 18:38:31;;;;;;;;;;;;;;;;;;5036704;28;19913;-85
2021/11/02 18:40:57;;;;;;;;;;;;;;;;;;5019528;28;19923;-84
2021/11/02 18:43:24;;;;;;;;;;;;;;;;;;5036934;28;19932;-84
2021/11/02 18:45:49;;;;;;;;;;;;;;;;;;5035583;28;19919;-84
2021/11/02 18:48:15;;;;;;;;;;;;;;;;;;5015647;28;20004;-84
2021/11/02 18:50:41;;;;;;;;;;;;;;;;;;5035869;28;20292;-84
2021/11/02 18:53:06;;;;;;;;;;;;;;;;;;5052987;28;19914;-84
2021/11/02 18:55:31;;;;;;;;;;;;;;;;;;5052407;28;19959;-84
2021/11/02 18:57:56;;;;;;;;;;;;;;;;;;5053009;28;19917;-85
2021/11/02 19:00:22;;;;;;;;;;;;;;;;;;5052868;28;19952;-84
2021/11/02 19:02:47;;;;;;;;;;;;;;;;;;5052622;28;19978;-85
2021/11/02 19:05:13;;;;;;;;;;;;;;;;;;5052421;28;20291;-85
2021/11/02 19:07:38;;;;;;;;;;;;;;;;;;5052651;28;19913;-85
2021/11/02 19:10:04;;;;;;;;;;;;;;;;;;5052492;28;20264;-85
2021/11/02 19:12:30;;;;;;;;;;;;;;;;;;5052296;28;19913;-84
2021/11/02 19:14:55;;;;;;;;;;;;;;;;;;5051932;28;19913;-85
2021/11/02 19:17:21;;;;;;;;;;;;;;;;;;5052081;28;19913;-85
2021/11/02 19:19:46;;;;;;;;;;;;;;;;;;5052183;28;19936;-84
2021/11/02 19:22:11;;;;;;;;;;;;;;;;;;5052150;28;19920;-85
2021/11/02 19:24:37;;;;;;;;;;;;;;;;;;5052184;28;19917;-85
2021/11/02 19:27:02;;;;;;;;;;;;;;;;;;5052269;28;19917;-84
2021/11/02 19:29:28;;;;;;;;;;;;;;;;;;5051755;28;19916;-85
2021/11/02 19:31:53;;;;;;;;;;;;;;;;;;5035669;28;19913;-84
2021/11/02 19:34:18;;;;;;;;;;;;;;;;;;5019085;28;19920;-84
2021/11/02 19:36:44;;;;;;;;;;;;;;;;;;5051914;28;20306;-85
2021/11/02 19:39:09;;;;;;;;;;;;;;;;;;5035624;28;19912;-84
2021/11/02 19:41:34;;;;;;;;;;;;;;;;;;5017670;28;19913;-84
2021/11/02 19:44:00;;;;;;;;;;;;;;;;;;5018697;28;19917;-84
2021/11/02 19:46:25;;;;;;;;;;;;;;;;;;5035280;28;19912;-84
2021/11/02 19:48:50;;;;;;;;;;;;;;;;;;5034884;28;19940;-84
2021/11/02 19:51:16;;;;;;;;;;;;;;;;;;4998947;28;19948;-84
2021/11/02 19:53:43;;;;;;;;;;;;;;;;;;5031683;28;19958;-85
2021/11/02 19:56:08;;;;;;;;;;;;;;;;;;5032717;28;19917;-84
2021/11/02 19:58:33;;;;;;;;;;;;;;;;;;5014695;28;19914;-84
2021/11/02 20:00:59;;;;;;;;;;;;;;;;;;5014958;28;20433;-84
2021/11/02 20:03:24;;;;;;;;;;;;;;;;;;4998614;28;19913;-85
2021/11/02 20:05:50;;;;;;;;;;;;;;;;;;5031598;28;19913;-84
2021/11/02 20:08:15;;;;;;;;;;;;;;;;;;5015063;28;19913;-85
2021/11/02 20:10:43;;;;;;;;;;;;;;;;;;5031165;28;19913;-85
2021/11/02 20:13:12;;;;;;;;;;;;;;;;;;5015168;28;19913;-84
2021/11/02 20:15:43;;;;;;;;;;;;;;;;;;5015355;28;19924;-84
2021/11/02 20:18:09;;;;;;;;;;;;;;;;;;5015094;28;20284;-84
2021/11/02 20:20:34;;;;;;;;;;;;;;;;;;5014469;28;19928;-84
2021/11/02 20:22:59;;;;;;;;;;;;;;;;;;5014997;28;19921;-84
2021/11/02 20:25:25;;;;;;;;;;;;;;;;;;5014284;28;19924;-84
2021/11/02 20:27:51;;;;;;;;;;;;;;;;;;5014902;28;19920;-84
2021/11/02 20:30:17;;;;;;;;;;;;;;;;;;5022170;28;19920;-84
2021/11/02 20:32:42;;;;;;;;;;;;;;;;;;5050938;28;19912;-84
2021/11/02 20:35:08;;;;;;;;;;;;;;;;;;5017924;28;19924;-84
2021/11/02 20:37:56;;;;;;;;;;;;;;;;;;5030742;28;20299;-84
2021/11/02 20:40:23;;;;;;;;;;;;;;;;;;5027810;28;19913;-84
2021/11/02 20:42:51;;;;;;;;;;;;;;;;;;5030877;28;19917;-84
2021/11/02 20:45:17;;;;;;;;;;;;;;;;;;5018594;28;19913;-84
2021/11/02 20:47:44;;;;;;;;;;;;;;;;;;5051144;28;19917;-84
2021/11/02 20:50:10;;;;;;;;;;;;;;;;;;5030333;28;20330;-84
2021/11/02 20:52:35;;;;;;;;;;;;;;;;;;5031393;28;19913;-84
2021/11/02 20:55:01;;;;;;;;;;;;;;;;;;5047123;28;19971;-84
2021/11/02 20:57:27;;;;;;;;;;;;;;;;;;5014247;28;19921;-84
2021/11/02 20:59:53;;;;;;;;;;;;;;;;;;5014214;28;19913;-84
2021/11/02 21:02:19;;;;;;;;;;;;;;;;;;5031245;28;20003;-84
2021/11/02 21:04:45;;;;;;;;;;;;;;;;;;5014315;28;20418;-84
2021/11/02 21:07:11;;;;;;;;;;;;;;;;;;5031028;28;19913;-84
2021/11/02 21:09:39;;;;;;;;;;;;;;;;;;5017419;28;19913;-84
2021/11/02 21:12:08;;;;;;;;;;;;;;;;;;5017966;28;20000;-84
2021/11/02 21:14:34;;;;;;;;;;;;;;;;;;5018485;28;19952;-85
2021/11/02 21:16:59;;;;;;;;;;;;;;;;;;5051314;28;19979;-84
2021/11/02 21:19:26;;;;;;;;;;;;;;;;;;5017925;28;19921;-85
2021/11/02 21:21:52;;;;;;;;;;;;;;;;;;5051383;28;19920;-84
2021/11/02 21:24:17;;;;;;;;;;;;;;;;;;5034374;28;19917;-84
2021/11/02 21:26:42;;;;;;;;;;;;;;;;;;5017688;28;20344;-85
2021/11/02 21:29:08;;;;;;;;;;;;;;;;;;5034577;28;20327;-84
2021/11/02 21:31:33;;;;;;;;;;;;;;;;;;5017135;28;19921;-84
2021/11/02 21:34:00;;;;;;;;;;;;;;;;;;5034321;28;19920;-85
2021/11/02 21:36:26;;;;;;;;;;;;;;;;;;5050773;28;19920;-84
2021/11/02 21:38:51;;;;;;;;;;;;;;;;;;5034410;28;19913;-84
2021/11/02 21:41:25;;;;;;;;;;;;;;;;;;5017746;28;19917;-84
2021/11/02 21:43:51;;;;;;;;;;;;;;;;;;5017690;28;19913;-84
2021/11/02 21:46:18;;;;;;;;;;;;;;;;;;5044983;28;20286;-84
2021/11/02 21:48:49;;;;;;;;;;;;;;;;;;5037167;28;19916;-85
2021/11/02 21:51:14;;;;;;;;;;;;;;;;;;5034356;28;19917;-84
2021/11/02 21:53:42;;;;;;;;;;;;;;;;;;5017197;28;20360;-84
2021/11/02 21:56:09;;;;;;;;;;;;;;;;;;5033849;28;19952;-84